Time;durP1;ratioP1;P1;durP2;ratioP2;P2;SDS_P1;SDS_P2;PMS_P1;PMS_P2;Temp;Humidity;BMP_temperature;BMP_pressure;BME280_temperature;BME280_humidity;BME280_pressure;Samples;Min_cycle;Max_cycle;Signal;HPM_P1;HPM_P2
2022/01/03 00:00:47;;;;;;;0.20;0.20;;;8.00;99.90;;;;;;5136705;27;20058;-84
2022/01/03 00:03:15;;;;;;;1.20;1.15;;;8.00;99.90;;;;;;5136739;27;20074;-86
2022/01/03 00:05:41;;;;;;;0.85;0.73;;;8.00;99.90;;;;;;5155324;27;20114;-86
2022/01/03 00:08:07;;;;;;;0.28;0.28;;;8.00;99.90;;;;;;5119803;27;20031;-86
2022/01/03 00:10:34;;;;;;;0.10;0.10;;;8.00;99.90;;;;;;5136760;27;20098;-85
2022/01/03 00:13:01;;;;;;;1.20;0.60;;;8.10;99.90;;;;;;5138901;27;20042;-94
2022/01/03 00:15:27;;;;;;;0.40;0.40;;;8.10;99.90;;;;;;5139575;27;20050;-96
2022/01/03 00:17:53;;;;;;;0.25;0.25;;;8.20;99.90;;;;;;5140174;27;20043;-93
2022/01/03 00:20:20;;;;;;;0.60;0.43;;;8.20;99.90;;;;;;5156478;27;20045;-96
2022/01/03 00:22:49;;;;;;;0.10;0.10;;;8.40;99.90;;;;;;5136594;27;20047;-94
2022/01/03 00:25:17;;;;;;;0.22;0.22;;;8.30;99.90;;;;;;5135719;27;20047;-93
2022/01/03 00:28:04;;;;;;;0.10;0.10;;;8.30;99.90;;;;;;5117935;27;20051;-94
2022/01/03 00:30:35;;;;;;;0.30;0.30;;;8.40;99.90;;;;;;5116967;27;20039;-93
2022/01/03 00:33:02;;;;;;;0.22;0.22;;;8.40;99.90;;;;;;5135510;27;20035;-92
2022/01/03 00:35:29;;;;;;;0.32;0.25;;;8.50;99.90;;;;;;5143452;27;20094;-77
2022/01/03 00:37:57;;;;;;;0.10;0.10;;;8.60;99.90;;;;;;5156305;27;20509;-92
2022/01/03 00:40:24;;;;;;;0.52;0.52;;;8.50;99.90;;;;;;5156175;27;20038;-94
2022/01/03 00:42:50;;;;;;;0.75;0.75;;;8.60;99.90;;;;;;5137649;27;20045;-91
2022/01/03 00:45:16;;;;;;;0.57;0.57;;;8.70;99.90;;;;;;5155774;27;20047;-91
2022/01/03 00:47:42;;;;;;;0.50;0.50;;;8.70;99.90;;;;;;5135642;27;20039;-87
2022/01/03 00:50:12;;;;;;;4.00;0.73;;;8.70;99.90;;;;;;5153927;27;20046;-94
2022/01/03 00:52:38;;;;;;;0.20;0.20;;;8.70;99.90;;;;;;5155683;27;20121;-94
2022/01/03 00:55:05;;;;;;;0.63;0.63;;;8.70;99.90;;;;;;5132944;27;20513;-93
2022/01/03 00:57:52;;;;;;;8.75;0.35;;;8.70;99.90;;;;;;5137839;27;20130;-94
2022/01/03 01:00:19;;;;;;;1.20;0.57;;;8.80;99.90;;;;;;5136159;27;20039;-90
2022/01/03 01:03:18;;;;;;;1.75;1.65;;;8.90;99.90;;;;;;5137279;27;20054;-92
2022/01/03 01:05:49;;;;;;;0.20;0.20;;;8.90;99.90;;;;;;5127326;28;20477;-88
2022/01/03 01:08:20;;;;;;;3.78;0.30;;;9.00;99.90;;;;;;5109331;28;20042;-92
2022/01/03 01:10:47;;;;;;;4.65;1.75;;;9.00;99.90;;;;;;5096107;28;20042;-90
2022/01/03 01:13:14;;;;;;;0.38;0.38;;;9.00;99.90;;;;;;5114063;28;20047;-92
2022/01/03 01:15:41;;;;;;;0.20;0.20;;;9.00;99.90;;;;;;5112807;28;20044;-94
2022/01/03 01:18:08;;;;;;;0.82;0.82;;;9.00;99.90;;;;;;5097435;28;20090;-90
2022/01/03 01:20:36;;;;;;;0.20;0.20;;;9.10;99.90;;;;;;5132354;27;20558;-92
2022/01/03 01:23:06;;;;;;;1.98;0.65;;;9.10;99.90;;;;;;5139192;27;20074;-90
2022/01/03 01:28:02;;;;;;;0.60;0.60;;;9.20;99.90;;;;;;5136243;27;20469;-89
2022/01/03 01:30:28;;;;;;;0.38;0.38;;;9.20;99.90;;;;;;5155335;27;20062;-88
2022/01/03 01:33:14;;;;;;;0.30;0.30;;;9.20;99.90;;;;;;5119785;27;20043;-88
2022/01/03 01:35:55;;;;;;;0.20;0.20;;;9.20;99.90;;;;;;5158759;27;20046;-90
2022/01/03 01:38:27;;;;;;;0.52;0.52;;;9.20;99.90;;;;;;5158709;27;20092;-91
2022/01/03 01:40:55;;;;;;;4.40;0.52;;;9.20;99.90;;;;;;5158547;27;20513;-89
2022/01/03 01:43:32;;;;;;;0.80;0.47;;;9.30;99.90;;;;;;5158906;27;20034;-90
2022/01/03 01:45:59;;;;;;;0.70;0.30;;;9.20;99.90;;;;;;5158698;27;20031;-90
2022/01/03 01:48:26;;;;;;;0.45;0.45;;;9.30;99.90;;;;;;5158986;27;20098;-88
2022/01/03 01:50:53;;;;;;;3.63;1.05;;;9.30;99.90;;;;;;5139997;27;20110;-88
2022/01/03 01:53:24;;;;;;;2.58;0.75;;;9.30;99.90;;;;;;5158512;27;20049;-89
2022/01/03 01:55:53;;;;;;;0.95;0.95;;;9.30;99.90;;;;;;5158602;27;20050;-90
2022/01/03 01:58:24;;;;;;;0.93;0.93;;;9.30;99.90;;;;;;5158744;27;20034;-91
2022/01/03 02:01:04;;;;;;;4.97;3.40;;;9.30;99.90;;;;;;5157877;27;20146;-89
2022/01/03 02:03:47;;;;;;;0.43;0.43;;;9.30;99.90;;;;;;5140312;27;20183;-89
2022/01/03 02:06:27;;;;;;;4.05;0.43;;;9.40;99.90;;;;;;5158399;27;20404;-90
2022/01/03 02:09:05;;;;;;;5.10;0.38;;;9.30;99.90;;;;;;5158961;27;20043;-91
2022/01/03 02:11:49;;;;;;;0.38;0.30;;;9.30;99.90;;;;;;5158830;27;20078;-87
2022/01/03 02:14:15;;;;;;;1.17;0.75;;;9.30;99.90;;;;;;5144241;27;20095;-89
2022/01/03 02:16:42;;;;;;;1.17;0.30;;;9.30;99.90;;;;;;5143380;27;20167;-86
2022/01/03 02:19:07;;;;;;;1.45;0.30;;;9.30;99.90;;;;;;5160176;27;20043;-89
2022/01/03 02:21:33;;;;;;;1.77;0.90;;;9.40;99.90;;;;;;5157598;27;20050;-87
2022/01/03 02:23:59;;;;;;;2.03;1.33;;;9.40;99.90;;;;;;5157740;27;20039;-85
2022/01/03 02:26:24;;;;;;;0.30;0.20;;;9.50;99.90;;;;;;5139550;27;20397;-87
2022/01/03 02:28:50;;;;;;;0.38;0.38;;;9.40;99.90;;;;;;5139513;27;20478;-89
2022/01/03 02:31:17;;;;;;;0.20;0.20;;;9.40;99.90;;;;;;5157692;27;20045;-89
2022/01/03 02:33:44;;;;;;;0.40;0.40;;;9.40;99.90;;;;;;5157726;27;20043;-86
2022/01/03 02:36:10;;;;;;;0.20;0.20;;;9.40;99.90;;;;;;5148941;27;20046;-76
2022/01/03 02:38:37;;;;;;;10.20;1.15;;;9.30;99.90;;;;;;5143534;27;20038;-86
2022/01/03 02:41:03;;;;;;;1.52;1.45;;;9.30;99.90;;;;;;5156736;27;20060;-83
2022/01/03 02:43:28;;;;;;;0.38;0.38;;;9.30;99.90;;;;;;5157079;27;20038;-81
2022/01/03 02:45:54;;;;;;;0.95;0.95;;;9.40;99.90;;;;;;5156829;27;20043;-85
2022/01/03 02:48:23;;;;;;;0.20;0.20;;;9.30;99.90;;;;;;5157205;27;20047;-86
2022/01/03 02:50:49;;;;;;;0.50;0.50;;;9.30;99.90;;;;;;5156757;27;20129;-84
2022/01/03 02:53:15;;;;;;;8.43;3.13;;;9.40;99.90;;;;;;5156876;27;20070;-85
2022/01/03 02:55:41;;;;;;;2.75;0.25;;;9.30;99.90;;;;;;5157088;27;20034;-85
2022/01/03 02:58:07;;;;;;;0.30;0.30;;;9.30;99.90;;;;;;5157062;27;20035;-86
2022/01/03 03:00:53;;;;;;;0.30;0.30;;;9.30;99.90;;;;;;5156936;27;20053;-86
2022/01/03 03:03:20;;;;;;;0.30;0.30;;;9.40;99.90;;;;;;5157116;27;20038;-85
2022/01/03 03:05:47;;;;;;;2.70;1.08;;;9.40;99.90;;;;;;5167579;27;20038;-84
2022/01/03 03:08:13;;;;;;;0.95;0.32;;;9.40;99.90;;;;;;5151345;27;20050;-78
2022/01/03 03:10:40;;;;;;;20.60;2.55;;;9.30;99.90;;;;;;5161417;27;20521;-83
2022/01/03 03:13:06;;;;;;;0.40;0.40;;;9.30;99.90;;;;;;5156295;27;20509;-85
2022/01/03 03:15:32;;;;;;;4.32;0.75;;;9.30;99.90;;;;;;5137641;27;20049;-83
2022/01/03 03:17:59;;;;;;;0.52;0.35;;;9.30;99.90;;;;;;5156561;27;20050;-84
2022/01/03 03:20:29;;;;;;;0.88;0.85;;;9.30;99.90;;;;;;5137460;27;20042;-85
2022/01/03 03:22:57;;;;;;;0.20;0.20;;;9.20;99.90;;;;;;5137588;27;20047;-82
2022/01/03 03:25:26;;;;;;;0.10;0.10;;;9.30;99.90;;;;;;5137537;27;20087;-86
2022/01/03 03:28:02;;;;;;;0.32;0.32;;;9.30;99.90;;;;;;5137518;27;20129;-84
2022/01/03 03:30:34;;;;;;;0.30;0.30;;;9.20;99.90;;;;;;5156164;27;20420;-84
2022/01/03 03:33:04;;;;;;;1.48;1.38;;;9.30;99.90;;;;;;5137326;27;20091;-76
2022/01/03 03:35:30;;;;;;;1.52;0.45;;;9.20;99.90;;;;;;5155670;27;20478;-82
2022/01/03 03:37:56;;;;;;;0.25;0.25;;;9.30;99.90;;;;;;5156139;27;20095;-85
2022/01/03 03:40:22;;;;;;;0.32;0.32;;;9.20;99.90;;;;;;5137228;27;20043;-85
2022/01/03 03:42:47;;;;;;;1.48;0.80;;;9.10;99.90;;;;;;5155877;27;20049;-76
2022/01/03 03:45:13;;;;;;;1.55;0.40;;;9.20;99.90;;;;;;5148121;27;20058;-86
2022/01/03 03:47:40;;;;;;;8.25;2.70;;;9.20;99.90;;;;;;5140828;27;20082;-81
2022/01/03 03:50:06;;;;;;;10.02;0.95;;;9.10;99.90;;;;;;5134998;27;20097;-80
2022/01/03 03:52:33;;;;;;;5.97;1.80;;;9.10;99.90;;;;;;5116666;27;20043;-82
2022/01/03 03:54:58;;;;;;;1.25;1.15;;;9.10;99.90;;;;;;5116234;27;20042;-82
2022/01/03 03:57:25;;;;;;;2.40;2.22;;;9.10;99.90;;;;;;5115982;27;20369;-83
2022/01/03 03:59:50;;;;;;;2.10;0.57;;;9.10;99.90;;;;;;5116135;27;20116;-84
2022/01/03 04:02:16;;;;;;;5.53;1.45;;;9.10;99.90;;;;;;5134361;27;20054;-82
2022/01/03 04:04:42;;;;;;;3.80;3.50;;;9.10;99.90;;;;;;5134517;27;20039;-84
2022/01/03 04:07:07;;;;;;;1.10;0.93;;;9.10;99.90;;;;;;5134781;27;20043;-83
2022/01/03 04:09:33;;;;;;;3.20;0.40;;;9.10;99.90;;;;;;5134701;27;20039;-83
2022/01/03 04:11:59;;;;;;;0.20;0.20;;;9.20;99.90;;;;;;5134627;27;20046;-83
2022/01/03 04:14:25;;;;;;;2.97;1.33;;;9.20;99.90;;;;;;5134701;27;20035;-80
2022/01/03 04:16:51;;;;;;;2.00;0.40;;;9.20;99.90;;;;;;5134581;27;20035;-83
2022/01/03 04:19:16;;;;;;;1.55;1.05;;;9.20;99.90;;;;;;5115704;27;20399;-82
2022/01/03 04:21:42;;;;;;;0.50;0.50;;;9.20;99.90;;;;;;5115734;27;20043;-82
2022/01/03 04:24:10;;;;;;;0.85;0.85;;;9.20;99.90;;;;;;5115873;27;20071;-83
2022/01/03 04:26:37;;;;;;;0.20;0.20;;;9.20;99.90;;;;;;5134376;27;20043;-82
2022/01/03 04:29:04;;;;;;;5.57;1.50;;;9.20;99.90;;;;;;5134430;27;20039;-83
2022/01/03 04:31:30;;;;;;;3.47;2.13;;;9.20;99.90;;;;;;5134248;27;20043;-81
2022/01/03 04:33:56;;;;;;;0.43;0.28;;;9.20;99.90;;;;;;5134429;27;20046;-81
2022/01/03 04:36:23;;;;;;;1.50;1.40;;;9.20;99.90;;;;;;5115577;27;20437;-82
2022/01/03 04:38:49;;;;;;;3.30;1.15;;;9.20;99.90;;;;;;5134256;27;20057;-80
2022/01/03 04:41:15;;;;;;;4.07;0.40;;;9.20;99.90;;;;;;5133862;27;20467;-84
2022/01/03 04:43:41;;;;;;;6.82;0.70;;;9.30;99.90;;;;;;5134307;27;20114;-83
2022/01/03 04:46:10;;;;;;;0.25;0.25;;;9.40;99.90;;;;;;5133818;27;20084;-83
2022/01/03 04:48:38;;;;;;;9.50;3.65;;;9.40;99.90;;;;;;5115989;28;20047;-82
2022/01/03 04:51:05;;;;;;;18.17;4.82;;;9.40;99.90;;;;;;5133778;27;20657;-83
2022/01/03 04:53:33;;;;;;;7.50;4.35;;;9.40;99.90;;;;;;5133982;27;20039;-82
2022/01/03 04:55:58;;;;;;;0.73;0.73;;;9.40;99.90;;;;;;5143165;28;20043;-84
2022/01/03 04:58:24;;;;;;;1.08;1.08;;;9.40;99.90;;;;;;5124734;28;20076;-83
2022/01/03 05:00:50;;;;;;;1.52;1.42;;;9.40;99.90;;;;;;5133654;28;20419;-85
2022/01/03 05:03:16;;;;;;;2.08;1.95;;;9.40;99.90;;;;;;5133860;28;20402;-83
2022/01/03 05:05:42;;;;;;;1.85;1.27;;;9.40;99.90;;;;;;5134015;28;20039;-79
2022/01/03 05:08:08;;;;;;;5.25;1.05;;;9.40;99.90;;;;;;5135407;27;20448;-83
2022/01/03 05:10:33;;;;;;;3.30;0.73;;;9.50;99.90;;;;;;5119692;27;20194;-84
2022/01/03 05:13:00;;;;;;;2.58;2.42;;;9.40;99.90;;;;;;5119936;27;20058;-83
2022/01/03 05:15:25;;;;;;;0.30;0.30;;;9.50;99.90;;;;;;5119583;27;20046;-83
2022/01/03 05:17:51;;;;;;;0.17;0.17;;;9.50;99.90;;;;;;5119814;27;20039;-84
2022/01/03 05:20:16;;;;;;;0.20;0.20;;;9.50;99.90;;;;;;5102449;27;20035;-80
2022/01/03 05:22:43;;;;;;;4.45;1.73;;;9.50;99.90;;;;;;5119314;27;20039;-81
2022/01/03 05:25:09;;;;;;;1.45;0.95;;;9.40;99.90;;;;;;5119403;27;20431;-83
2022/01/03 05:27:37;;;;;;;0.20;0.20;;;9.50;99.90;;;;;;5119270;27;20134;-84
2022/01/03 05:30:04;;;;;;;2.53;0.55;;;9.50;99.90;;;;;;5102174;27;20043;-83
2022/01/03 05:32:29;;;;;;;0.50;0.50;;;9.50;99.90;;;;;;5102377;27;20095;-83
2022/01/03 05:34:55;;;;;;;0.57;0.57;;;9.50;99.90;;;;;;5119462;27;20126;-83
2022/01/03 05:37:21;;;;;;;2.85;2.63;;;9.40;99.90;;;;;;5119574;27;20089;-84
2022/01/03 05:39:46;;;;;;;0.30;0.30;;;9.40;99.90;;;;;;5119514;27;20039;-84
2022/01/03 05:42:12;;;;;;;5.70;1.75;;;9.50;99.90;;;;;;5137416;27;20043;-84
2022/01/03 05:44:38;;;;;;;6.13;3.03;;;9.40;99.90;;;;;;5119106;27;20128;-86
2022/01/03 05:47:04;;;;;;;0.10;0.10;;;9.40;99.90;;;;;;5119660;27;20061;-84
2022/01/03 05:49:29;;;;;;;0.20;0.20;;;9.40;99.90;;;;;;5141951;27;20127;-85
2022/01/03 05:51:55;;;;;;;0.10;0.10;;;9.40;99.90;;;;;;5148472;27;20046;-85
2022/01/03 05:54:20;;;;;;;0.80;0.30;;;9.40;99.90;;;;;;5124333;27;20129;-86
2022/01/03 05:56:46;;;;;;;8.30;2.65;;;9.50;99.90;;;;;;5138456;27;20034;-87
2022/01/03 05:59:12;;;;;;;0.35;0.35;;;9.50;99.90;;;;;;5118940;27;20483;-85
2022/01/03 06:01:38;;;;;;;7.60;0.90;;;9.50;99.90;;;;;;5118630;27;20061;-87
2022/01/03 06:04:22;;;;;;;2.40;0.15;;;9.50;99.90;;;;;;5118945;27;20055;-86
2022/01/03 06:06:59;;;;;;;0.20;0.20;;;9.40;99.90;;;;;;5137234;27;20083;-86
2022/01/03 06:09:25;;;;;;;0.30;0.30;;;9.50;99.90;;;;;;5137064;27;20082;-88
2022/01/03 06:11:52;;;;;;;0.43;0.43;;;9.50;99.90;;;;;;5119107;27;20043;-87
2022/01/03 06:14:20;;;;;;;0.85;0.85;;;9.50;99.90;;;;;;5118928;27;20100;-87
2022/01/03 06:16:47;;;;;;;1.27;1.27;;;9.50;99.90;;;;;;5137396;27;20054;-85
2022/01/03 06:19:13;;;;;;;0.30;0.30;;;9.40;99.90;;;;;;5136616;27;20043;-84
2022/01/03 06:21:41;;;;;;;1.50;1.40;;;9.40;99.90;;;;;;5118199;27;20541;-82
2022/01/03 06:24:09;;;;;;;0.90;0.63;;;9.40;99.90;;;;;;5118544;27;20043;-83
2022/01/03 06:26:38;;;;;;;6.15;1.90;;;9.30;99.90;;;;;;5118117;27;20051;-82
2022/01/03 06:29:04;;;;;;;1.75;1.65;;;9.30;99.90;;;;;;5118176;27;20073;-83
2022/01/03 06:31:31;;;;;;;5.45;0.50;;;9.30;99.90;;;;;;5117875;27;20036;-80
2022/01/03 06:33:57;;;;;;;7.70;2.50;;;9.30;99.90;;;;;;5118393;27;20524;-81
2022/01/03 06:36:22;;;;;;;8.68;3.28;;;9.30;99.90;;;;;;5118416;27;20070;-82
2022/01/03 06:38:48;;;;;;;1.05;1.05;;;9.30;99.90;;;;;;5136616;27;20120;-83
2022/01/03 06:41:14;;;;;;;17.48;2.35;;;9.30;99.90;;;;;;5118127;27;20129;-84
2022/01/03 06:43:40;;;;;;;0.28;0.28;;;9.30;99.90;;;;;;5136544;27;20038;-83
2022/01/03 06:46:05;;;;;;;0.15;0.15;;;9.40;99.90;;;;;;5147779;27;20062;-83
2022/01/03 06:48:31;;;;;;;1.48;1.30;;;9.30;99.90;;;;;;5147455;27;20090;-84
2022/01/03 06:50:56;;;;;;;0.95;0.95;;;9.30;99.90;;;;;;5117750;27;20043;-83
2022/01/03 06:53:22;;;;;;;0.60;0.60;;;9.20;99.90;;;;;;5136490;27;20042;-84
2022/01/03 06:55:48;;;;;;;5.07;1.10;;;9.20;99.90;;;;;;5136228;27;20050;-84
2022/01/03 06:58:13;;;;;;;0.25;0.25;;;9.20;99.90;;;;;;5117898;27;20043;-85
2022/01/03 07:00:39;;;;;;;0.40;0.40;;;9.10;99.90;;;;;;5117371;27;20074;-83
2022/01/03 07:03:05;;;;;;;6.05;0.90;;;9.10;99.90;;;;;;5117296;27;20039;-84
2022/01/03 07:05:30;;;;;;;0.20;0.20;;;9.10;99.90;;;;;;5117714;27;20085;-84
2022/01/03 07:07:56;;;;;;;0.20;0.20;;;9.10;99.90;;;;;;5136532;27;20027;-80
2022/01/03 07:10:23;;;;;;;0.20;0.20;;;9.10;99.90;;;;;;5135960;27;20075;-84
2022/01/03 07:12:50;;;;;;;0.90;0.90;;;9.10;99.90;;;;;;5117696;27;20051;-82
2022/01/03 07:20:47;;;;;;;28.83;1.85;;;9.10;99.90;;;;;;5134960;27;20050;-84
2022/01/03 07:23:17;;;;;;;0.75;0.50;;;9.10;99.90;;;;;;5135729;27;20073;-82
2022/01/03 07:25:44;;;;;;;5.00;4.03;;;9.20;99.90;;;;;;5117186;27;20039;-85
2022/01/03 07:28:10;;;;;;;6.40;2.15;;;9.10;99.90;;;;;;5135666;27;20039;-78
2022/01/03 07:30:36;;;;;;;7.40;2.00;;;9.10;99.90;;;;;;5134551;27;20110;-86
2022/01/03 07:33:01;;;;;;;0.10;0.10;;;9.20;99.90;;;;;;5135589;27;20047;-85
2022/01/03 07:35:27;;;;;;;0.20;0.20;;;9.20;99.90;;;;;;5135461;27;20035;-84
2022/01/03 07:37:53;;;;;;;0.68;0.68;;;9.20;99.90;;;;;;5135157;27;20039;-86
2022/01/03 07:40:20;;;;;;;3.58;0.50;;;9.20;99.90;;;;;;5116805;27;20035;-81
2022/01/03 07:42:45;;;;;;;1.02;0.63;;;9.20;99.90;;;;;;5116926;27;20399;-85
2022/01/03 07:45:12;;;;;;;1.83;0.55;;;9.10;99.90;;;;;;5116419;27;20096;-83
2022/01/03 07:47:38;;;;;;;3.83;1.95;;;9.10;99.90;;;;;;5135336;27;20047;-83
2022/01/03 07:50:07;;;;;;;0.17;0.17;;;9.00;99.90;;;;;;5135494;27;20053;-83
2022/01/03 07:52:33;;;;;;;0.57;0.57;;;9.10;99.90;;;;;;5116370;27;20043;-85
2022/01/03 07:54:59;;;;;;;1.08;1.08;;;9.20;99.90;;;;;;5135150;27;20078;-85
2022/01/03 07:57:25;;;;;;;0.75;0.75;;;9.10;99.90;;;;;;5116326;27;20086;-85
2022/01/03 07:59:50;;;;;;;5.05;2.83;;;9.10;99.90;;;;;;5099338;27;20054;-83
2022/01/03 08:02:16;;;;;;;17.35;1.08;;;9.20;99.90;;;;;;5134135;27;20047;-83
2022/01/03 08:04:42;;;;;;;0.85;0.85;;;9.00;99.90;;;;;;5116490;27;20039;-83
2022/01/03 08:07:07;;;;;;;0.20;0.20;;;9.10;99.90;;;;;;5082685;27;20039;-84
2022/01/03 08:09:33;;;;;;;0.30;0.30;;;9.10;99.90;;;;;;5116447;27;20050;-86
2022/01/03 08:12:00;;;;;;;0.75;0.75;;;9.20;99.90;;;;;;5134601;27;20043;-84
2022/01/03 08:14:26;;;;;;;0.50;0.50;;;9.20;99.90;;;;;;5116556;27;20387;-85
2022/01/03 08:16:51;;;;;;;0.20;0.20;;;9.20;99.90;;;;;;5116269;27;20038;-85
2022/01/03 08:19:17;;;;;;;0.20;0.20;;;9.20;99.90;;;;;;5134779;27;20040;-84
2022/01/03 08:21:43;;;;;;;1.20;1.20;;;9.30;99.90;;;;;;5134200;27;20050;-84
2022/01/03 08:24:08;;;;;;;0.35;0.35;;;9.30;99.90;;;;;;5134387;27;20039;-85
2022/01/03 08:26:35;;;;;;;25.52;3.10;;;9.30;99.90;;;;;;5134285;27;20051;-85
2022/01/03 08:29:01;;;;;;;16.98;2.13;;;9.30;99.90;;;;;;5134326;27;20087;-82
2022/01/03 08:31:26;;;;;;;4.28;1.80;;;9.30;99.90;;;;;;5134024;27;20047;-86
2022/01/03 08:33:55;;;;;;;9.18;1.48;;;9.40;99.90;;;;;;5115586;27;20035;-85
2022/01/03 08:36:21;;;;;;;5.43;1.55;;;9.40;99.90;;;;;;5134132;27;20047;-85
2022/01/03 08:38:47;;;;;;;4.32;0.75;;;9.40;99.90;;;;;;5134436;27;20122;-84
2022/01/03 08:41:13;;;;;;;0.38;0.38;;;9.40;99.90;;;;;;5134375;27;20039;-84
2022/01/03 08:43:38;;;;;;;1.10;1.10;;;9.40;99.90;;;;;;5134005;27;20119;-82
2022/01/03 08:46:04;;;;;;;0.43;0.43;;;9.50;99.90;;;;;;5133801;27;20047;-83
2022/01/03 08:48:30;;;;;;;13.57;2.28;;;9.40;99.90;;;;;;5134251;27;20051;-80
2022/01/03 08:50:56;;;;;;;0.10;0.10;;;9.50;99.90;;;;;;5115858;28;20043;-85
2022/01/03 08:53:26;;;;;;;0.90;0.90;;;9.50;99.90;;;;;;5115322;27;20039;-84
2022/01/03 08:55:56;;;;;;;2.53;2.33;;;9.50;99.90;;;;;;5115593;28;20094;-84
2022/01/03 08:58:23;;;;;;;7.68;1.08;;;9.50;99.90;;;;;;5115361;28;20088;-83
2022/01/03 09:00:50;;;;;;;0.60;0.57;;;9.60;99.90;;;;;;5133475;28;20039;-84
2022/01/03 09:03:16;;;;;;;2.05;1.65;;;9.60;99.90;;;;;;5133512;28;20554;-83
2022/01/03 09:05:42;;;;;;;10.05;1.30;;;9.60;99.90;;;;;;5115662;28;20075;-84
2022/01/03 09:08:16;;;;;;;3.13;2.15;;;9.50;99.90;;;;;;5133677;28;20471;-86
2022/01/03 09:10:42;;;;;;;2.90;1.65;;;9.70;99.90;;;;;;5133868;28;20089;-82
2022/01/03 09:13:08;;;;;;;11.88;1.15;;;9.70;99.90;;;;;;5133965;28;20479;-83
2022/01/03 09:15:34;;;;;;;1.05;0.93;;;9.80;99.90;;;;;;5133782;28;20114;-82
2022/01/03 09:18:00;;;;;;;10.73;1.67;;;9.70;99.90;;;;;;5134045;28;20478;-83
2022/01/03 09:20:25;;;;;;;0.32;0.32;;;9.70;99.90;;;;;;5115125;28;20415;-83
2022/01/03 09:22:55;;;;;;;0.60;0.60;;;9.70;99.90;;;;;;5133726;28;20050;-85
2022/01/03 09:30:48;;;;;;;1.35;1.35;;;9.80;99.90;;;;;;5134520;28;20039;-84
2022/01/03 09:33:14;;;;;;;0.95;0.82;;;9.90;99.90;;;;;;5134275;28;20050;-83
2022/01/03 09:35:40;;;;;;;0.45;0.45;;;9.80;99.90;;;;;;5115337;28;20175;-84
2022/01/03 09:38:06;;;;;;;1.17;1.13;;;9.80;99.90;;;;;;5133522;28;20067;-84
2022/01/03 09:40:32;;;;;;;0.55;0.55;;;9.80;99.90;;;;;;5133229;28;20084;-83
2022/01/03 09:43:00;;;;;;;1.67;1.58;;;9.90;99.90;;;;;;5133597;28;20035;-85
2022/01/03 09:45:32;;;;;;;0.77;0.77;;;9.90;99.90;;;;;;5115010;28;20039;-82
2022/01/03 09:47:59;;;;;;;1.77;1.67;;;9.90;99.90;;;;;;5115627;28;20057;-84
2022/01/03 09:50:25;;;;;;;0.13;0.13;;;9.90;99.90;;;;;;5114788;28;20043;-84
2022/01/03 09:52:51;;;;;;;2.45;1.38;;;9.90;99.90;;;;;;5114932;27;20083;-84
2022/01/03 09:55:20;;;;;;;0.50;0.43;;;9.90;99.90;;;;;;5136194;27;20352;-84
2022/01/03 09:57:46;;;;;;;8.73;4.18;;;10.00;99.90;;;;;;5137402;27;20032;-85
2022/01/03 10:00:14;;;;;;;2.40;1.92;;;9.90;99.90;;;;;;5118296;27;20055;-83
2022/01/03 10:02:40;;;;;;;2.45;2.25;;;9.90;99.90;;;;;;5118274;27;20055;-83
2022/01/03 10:05:06;;;;;;;1.10;1.10;;;9.90;99.90;;;;;;5136788;27;20384;-84
2022/01/03 10:07:33;;;;;;;0.85;0.85;;;9.90;99.90;;;;;;5119119;27;20046;-83
2022/01/03 10:10:01;;;;;;;0.45;0.43;;;10.00;99.90;;;;;;5118536;27;20103;-85
2022/01/03 10:12:27;;;;;;;4.47;0.68;;;10.00;99.90;;;;;;5101526;27;20049;-83
2022/01/03 10:14:53;;;;;;;1.08;1.08;;;10.10;99.90;;;;;;5118633;27;20047;-84
2022/01/03 10:17:19;;;;;;;0.70;0.70;;;10.00;99.90;;;;;;5118086;27;20046;-84
2022/01/03 10:19:53;;;;;;;1.65;1.65;;;10.10;99.90;;;;;;5137473;27;20047;-84
2022/01/03 10:22:21;;;;;;;8.65;0.90;;;10.00;99.90;;;;;;5118690;27;20488;-84
2022/01/03 10:24:47;;;;;;;2.60;2.42;;;10.10;99.90;;;;;;5118545;27;20044;-84
2022/01/03 10:27:13;;;;;;;0.25;0.25;;;10.10;99.90;;;;;;5118443;27;20043;-84
2022/01/03 10:29:41;;;;;;;0.52;0.52;;;10.20;99.90;;;;;;5118050;27;20395;-83
2022/01/03 10:32:11;;;;;;;2.90;2.70;;;10.20;99.90;;;;;;5118108;27;20122;-83
2022/01/03 10:34:37;;;;;;;11.20;2.53;;;10.20;99.90;;;;;;5117743;27;20128;-84
2022/01/03 10:37:12;;;;;;;1.08;1.08;;;10.20;99.90;;;;;;5136415;27;20035;-83
2022/01/03 10:39:38;;;;;;;0.68;0.47;;;10.30;99.90;;;;;;5136415;27;20121;-82
2022/01/03 10:42:17;;;;;;;3.40;3.15;;;10.20;99.90;;;;;;5117522;27;20137;-81
2022/01/03 10:44:43;;;;;;;1.58;0.68;;;10.20;99.90;;;;;;5136308;27;20042;-83
2022/01/03 10:47:13;;;;;;;4.38;2.05;;;10.20;99.90;;;;;;5117846;27;20050;-82
2022/01/03 10:49:41;;;;;;;1.85;1.75;;;10.20;99.90;;;;;;5117908;27;20133;-84
2022/01/03 10:52:29;;;;;;;0.95;0.95;;;10.20;99.90;;;;;;5117418;27;20132;-83
2022/01/03 10:55:07;;;;;;;0.68;0.68;;;10.20;99.90;;;;;;5136409;27;20047;-83
2022/01/03 10:57:58;;;;;;;1.75;1.65;;;10.30;99.90;;;;;;5136038;27;20043;-83
2022/01/03 11:00:42;;;;;;;0.30;0.30;;;10.30;99.90;;;;;;5135995;27;20168;-83
2022/01/03 11:05:57;;;;;;;0.40;0.40;;;10.20;99.90;;;;;;5135777;27;20112;-82
2022/01/03 11:11:13;;;;;;;0.93;0.93;;;10.20;99.90;;;;;;5136006;27;20047;-82
2022/01/03 11:13:47;;;;;;;0.63;0.63;;;10.30;99.90;;;;;;5117195;27;20039;-81
2022/01/03 11:16:13;;;;;;;0.22;0.22;;;10.30;99.90;;;;;;5135931;27;20043;-81
2022/01/03 11:18:47;;;;;;;15.20;2.95;;;10.30;99.90;;;;;;5135838;27;20095;-82
2022/01/03 11:21:17;;;;;;;10.32;0.95;;;10.40;99.90;;;;;;5135796;27;20108;-81
2022/01/03 11:23:49;;;;;;;0.10;0.10;;;10.40;99.90;;;;;;5135843;27;20039;-82
2022/01/03 11:26:20;;;;;;;0.28;0.28;;;10.50;99.90;;;;;;5135697;27;20039;-80
2022/01/03 11:28:47;;;;;;;1.15;1.15;;;10.50;99.90;;;;;;5118475;27;20387;-82
2022/01/03 11:31:15;;;;;;;1.70;0.88;;;10.40;99.90;;;;;;5117101;27;20070;-81
2022/01/03 11:33:41;;;;;;;2.53;2.42;;;10.50;99.90;;;;;;5135231;27;20050;-83
2022/01/03 11:36:08;;;;;;;5.38;0.52;;;10.50;99.90;;;;;;5135303;27;20049;-81
2022/01/03 11:38:40;;;;;;;10.18;1.35;;;10.50;99.90;;;;;;5116787;27;20122;-83
2022/01/03 11:41:08;;;;;;;;;;;10.50;99.90;;;;;;5117195;27;20043;-84
2022/01/03 11:43:37;;;;;;;2.38;0.77;;;10.40;99.90;;;;;;5135460;27;19920;-83
2022/01/03 11:46:04;;;;;;;0.88;0.88;;;10.40;99.90;;;;;;5135242;27;20038;-80
2022/01/03 11:48:30;;;;;;;0.10;0.10;;;10.50;99.90;;;;;;5135274;27;20039;-79
2022/01/03 11:51:02;;;;;;;0.20;0.20;;;10.50;99.90;;;;;;5135263;27;20046;-81
2022/01/03 11:53:29;;;;;;;5.88;2.35;;;10.60;99.90;;;;;;5116920;27;20050;-82
2022/01/03 11:56:06;;;;;;;0.73;0.45;;;10.60;99.90;;;;;;5099643;27;20049;-83
2022/01/03 11:59:07;;;;;;;0.85;0.70;;;10.60;99.90;;;;;;5135454;27;20043;-82
2022/01/03 12:04:31;;;;;;;5.93;0.90;;;10.60;99.90;;;;;;5116831;27;20047;-83
2022/01/03 12:07:05;;;;;;;4.60;0.52;;;10.60;99.90;;;;;;5140273;27;20043;-80
2022/01/03 12:09:32;;;;;;;0.30;0.30;;;10.50;99.90;;;;;;5144359;27;20048;-81
2022/01/03 12:11:58;;;;;;;1.77;0.90;;;10.60;99.90;;;;;;5137081;27;20039;-81
2022/01/03 12:14:44;;;;;;;0.50;0.50;;;10.60;99.90;;;;;;5134435;27;20146;-82
2022/01/03 12:17:14;;;;;;;0.30;0.30;;;10.60;99.90;;;;;;5115753;27;20087;-84
2022/01/03 12:19:46;;;;;;;1.27;1.17;;;10.60;99.90;;;;;;5116419;27;20051;-84
2022/01/03 12:22:22;;;;;;;0.30;0.30;;;10.60;99.90;;;;;;5116022;27;20126;-83
2022/01/03 12:24:52;;;;;;;0.98;0.98;;;10.60;99.90;;;;;;5116226;27;20035;-82
2022/01/03 12:27:23;;;;;;;2.83;1.42;;;10.60;99.90;;;;;;5134339;27;20126;-84
2022/01/03 12:29:55;;;;;;;4.20;0.53;;;10.70;99.90;;;;;;5115748;27;20475;-81
2022/01/03 12:32:33;;;;;;;0.30;0.30;;;10.70;99.90;;;;;;5116128;27;20133;-84
2022/01/03 12:35:16;;;;;;;2.08;1.98;;;10.70;99.90;;;;;;5115824;27;20039;-82
2022/01/03 12:37:50;;;;;;;0.85;0.73;;;10.60;99.90;;;;;;5116091;27;20120;-85
2022/01/03 12:40:27;;;;;;;6.70;1.50;;;10.70;99.90;;;;;;5134232;27;20058;-84
2022/01/03 12:42:55;;;;;;;6.13;1.10;;;10.70;99.90;;;;;;5134339;27;20092;-82
2022/01/03 12:45:30;;;;;;;1.02;0.98;;;10.70;99.90;;;;;;5134353;27;20046;-84
2022/01/03 12:48:08;;;;;;;0.32;0.32;;;10.80;99.90;;;;;;5098961;27;20050;-83
2022/01/03 12:51:04;;;;;;;5.32;1.95;;;10.80;99.90;;;;;;5115493;28;20050;-82
2022/01/03 12:53:29;;;;;;;0.13;0.13;;;10.80;99.90;;;;;;5134143;27;20050;-81
2022/01/03 12:56:02;;;;;;;2.35;0.95;;;10.80;99.90;;;;;;5115748;28;20039;-81
2022/01/03 12:58:28;;;;;;;4.57;0.45;;;10.80;99.90;;;;;;5116181;28;20071;-84
2022/01/03 13:01:05;;;;;;;0.40;0.40;;;10.80;99.90;;;;;;5120574;28;20079;-83
2022/01/03 13:03:50;;;;;;;1.85;1.75;;;10.80;99.90;;;;;;5143094;28;20051;-82
2022/01/03 13:06:20;;;;;;;8.48;2.13;;;10.90;99.90;;;;;;5133928;28;20507;-83
2022/01/03 13:08:51;;;;;;;0.80;0.80;;;10.80;99.90;;;;;;5115800;28;20438;-83
2022/01/03 13:11:24;;;;;;;1.35;1.33;;;10.80;99.90;;;;;;5134158;28;20043;-84
2022/01/03 13:14:00;;;;;;;0.88;0.88;;;10.80;99.90;;;;;;5115500;28;20165;-81
2022/01/03 13:16:28;;;;;;;1.35;1.25;;;10.80;99.90;;;;;;5115371;27;20039;-84
2022/01/03 13:18:55;;;;;;;2.47;1.10;;;10.80;99.90;;;;;;5134006;28;20038;-81
2022/01/03 13:21:24;;;;;;;3.30;1.58;;;10.70;99.90;;;;;;5115290;28;20039;-83
2022/01/03 13:23:57;;;;;;;1.70;1.60;;;10.70;99.90;;;;;;5116238;28;20039;-82